<?xml version="1.0" encoding="UTF-8"?>
<gpx version="1.0" creator="Trackator" xmlns:xsi="http://www.w3.org/2001/XMLSchema-instance" xmlns="http://www.topografix.com/GPX/1/0" xmlns:topografix="http://www.topografix.com/GPX/Private/TopoGrafix/0/1" xsi:schemaLocation="http://www.topografix.com/GPX/1/0 http://www.topografix.com/GPX/1/0/gpx.xsd http://www.topografix.com/GPX/Private/TopoGrafix/0/1 http://www.topografix.com/GPX/Private/TopoGrafix/0/1/topografix.xsd">
<metadata>
<link href="http://www.trackator.com">
<text>Trackator</text>
</link>
</metadata>
<time>2015-11-04T16:58:43Z</time>
<trk>
<name>Track: </name>
<desc>Hiking</desc>
<trkseg>
<trkpt lat="53.347828" lon="18.446064">
<ele>70</ele>
<time>2015-11-04T16:58:43Z</time>
</trkpt>
<trkpt lat="53.347828" lon="18.446064">
<ele>70</ele>
<time>2015-11-04T16:58:45Z</time>
</trkpt>
<trkpt lat="53.347828" lon="18.446064">
<ele>70</ele>
<time>2015-11-04T16:58:47Z</time>
</trkpt>
<trkpt lat="53.347828" lon="18.446064">
<ele>70</ele>
<time>2015-11-04T16:58:49Z</time>
</trkpt>
<trkpt lat="53.347828" lon="18.446064">
<ele>70</ele>
<time>2015-11-04T16:58:51Z</time>
</trkpt>
<trkpt lat="53.347826" lon="18.446064">
<ele>70</ele>
<time>2015-11-04T16:58:53Z</time>
</trkpt>
<trkpt lat="53.347826" lon="18.446064">
<ele>70</ele>
<time>2015-11-04T16:58:55Z</time>
</trkpt>
<trkpt lat="53.347826" lon="18.446064">
<ele>70</ele>
<time>2015-11-04T16:58:57Z</time>
</trkpt>
<trkpt lat="53.347826" lon="18.446064">
<ele>70</ele>
<time>2015-11-04T16:58:59Z</time>
</trkpt>
<trkpt lat="53.347826" lon="18.446064">
<ele>70</ele>
<time>2015-11-04T16:59:01Z</time>
</trkpt>
<trkpt lat="53.347828" lon="18.446064">
<ele>70</ele>
<time>2015-11-04T16:59:03Z</time>
</trkpt>
<trkpt lat="53.347828" lon="18.446064">
<ele>70</ele>
<time>2015-11-04T16:59:05Z</time>
</trkpt>
<trkpt lat="53.347828" lon="18.446064">
<ele>70</ele>
<time>2015-11-04T16:59:07Z</time>
</trkpt>
<trkpt lat="53.347826" lon="18.446064">
<ele>70</ele>
<time>2015-11-04T16:59:09Z</time>
</trkpt>
<trkpt lat="53.347826" lon="18.446064">
<ele>70</ele>
<time>2015-11-04T16:59:11Z</time>
</trkpt>
<trkpt lat="53.347826" lon="18.446064">
<ele>70</ele>
<time>2015-11-04T16:59:13Z</time>
</trkpt>
<trkpt lat="53.347826" lon="18.446064">
<ele>70</ele>
<time>2015-11-04T16:59:15Z</time>
</trkpt>
<trkpt lat="53.347826" lon="18.446063">
<ele>70</ele>
<time>2015-11-04T16:59:17Z</time>
</trkpt>
<trkpt lat="53.347826" lon="18.446063">
<ele>70</ele>
<time>2015-11-04T16:59:19Z</time>
</trkpt>
<trkpt lat="53.347826" lon="18.446063">
<ele>70</ele>
<time>2015-11-04T16:59:21Z</time>
</trkpt>
<trkpt lat="53.347826" lon="18.446063">
<ele>70</ele>
<time>2015-11-04T16:59:23Z</time>
</trkpt>
<trkpt lat="53.347826" lon="18.446063">
<ele>70</ele>
<time>2015-11-04T16:59:25Z</time>
</trkpt>
<trkpt lat="53.347826" lon="18.446063">
<ele>70</ele>
<time>2015-11-04T16:59:27Z</time>
</trkpt>
<trkpt lat="53.347826" lon="18.446063">
<ele>70</ele>
<time>2015-11-04T16:59:29Z</time>
</trkpt>
<trkpt lat="53.347826" lon="18.446063">
<ele>70</ele>
<time>2015-11-04T16:59:31Z</time>
</trkpt>
<trkpt lat="53.347826" lon="18.446063">
<ele>70</ele>
<time>2015-11-04T16:59:33Z</time>
</trkpt>
<trkpt lat="53.347826" lon="18.446063">
<ele>70</ele>
<time>2015-11-04T16:59:35Z</time>
</trkpt>
<trkpt lat="53.347826" lon="18.446063">
<ele>70</ele>
<time>2015-11-04T16:59:37Z</time>
</trkpt>
<trkpt lat="53.347826" lon="18.446063">
<ele>70</ele>
<time>2015-11-04T16:59:39Z</time>
</trkpt>
<trkpt lat="53.347826" lon="18.446063">
<ele>70</ele>
<time>2015-11-04T16:59:41Z</time>
</trkpt>
<trkpt lat="53.347826" lon="18.446063">
<ele>70</ele>
<time>2015-11-04T16:59:43Z</time>
</trkpt>
<trkpt lat="53.347826" lon="18.446063">
<ele>70</ele>
<time>2015-11-04T16:59:45Z</time>
</trkpt>
<trkpt lat="53.347826" lon="18.446063">
<ele>70</ele>
<time>2015-11-04T16:59:47Z</time>
</trkpt>
<trkpt lat="53.347826" lon="18.446063">
<ele>70</ele>
<time>2015-11-04T16:59:49Z</time>
</trkpt>
<trkpt lat="53.347826" lon="18.446063">
<ele>70</ele>
<time>2015-11-04T16:59:51Z</time>
</trkpt>
<trkpt lat="53.347826" lon="18.446063">
<ele>70</ele>
<time>2015-11-04T16:59:53Z</time>
</trkpt>
<trkpt lat="53.347826" lon="18.446061">
<ele>70</ele>
<time>2015-11-04T16:59:55Z</time>
</trkpt>
<trkpt lat="53.347826" lon="18.446061">
<ele>70</ele>
<time>2015-11-04T16:59:57Z</time>
</trkpt>
<trkpt lat="53.347826" lon="18.446061">
<ele>70</ele>
<time>2015-11-04T16:59:59Z</time>
</trkpt>
<trkpt lat="53.347826" lon="18.446061">
<ele>70</ele>
<time>2015-11-04T17:00:01Z</time>
</trkpt>
<trkpt lat="53.347826" lon="18.446061">
<ele>70</ele>
<time>2015-11-04T17:00:03Z</time>
</trkpt>
<trkpt lat="53.347826" lon="18.446061">
<ele>70</ele>
<time>2015-11-04T17:00:05Z</time>
</trkpt>
<trkpt lat="53.347826" lon="18.446061">
<ele>70</ele>
<time>2015-11-04T17:00:07Z</time>
</trkpt>
<trkpt lat="53.347826" lon="18.446061">
<ele>70</ele>
<time>2015-11-04T17:00:09Z</time>
</trkpt>
<trkpt lat="53.347826" lon="18.446061">
<ele>70</ele>
<time>2015-11-04T17:00:11Z</time>
</trkpt>
<trkpt lat="53.347826" lon="18.446061">
<ele>70</ele>
<time>2015-11-04T17:00:13Z</time>
</trkpt>
<trkpt lat="53.347826" lon="18.446061">
<ele>70</ele>
<time>2015-11-04T17:00:15Z</time>
</trkpt>
<trkpt lat="53.347826" lon="18.446061">
<ele>70</ele>
<time>2015-11-04T17:00:17Z</time>
</trkpt>
<trkpt lat="53.347826" lon="18.446061">
<ele>70</ele>
<time>2015-11-04T17:00:19Z</time>
</trkpt>
<trkpt lat="53.347826" lon="18.446061">
<ele>70</ele>
<time>2015-11-04T17:00:21Z</time>
</trkpt>
<trkpt lat="53.347826" lon="18.446061">
<ele>70</ele>
<time>2015-11-04T17:00:23Z</time>
</trkpt>
<trkpt lat="53.347826" lon="18.446061">
<ele>70</ele>
<time>2015-11-04T17:00:25Z</time>
</trkpt>
<trkpt lat="" lon="">
<ele></ele>
<time>2015-11-04TZ</time>
</trkpt>
</trkseg>
</trk>
<wpt lat="" lon="">
	<name></name>
	<desc></desc>
	<cmt></cmt>
	<photoid></photoid>
	<type></type>
</wpt>
</gpx>
